Time;durP1;ratioP1;P1;durP2;ratioP2;P2;SDS_P1;SDS_P2;PMS_P1;PMS_P2;Temp;Humidity;BMP_temperature;BMP_pressure;BME280_temperature;BME280_humidity;BME280_pressure;Samples;Min_cycle;Max_cycle;Signal;HPM_P1;HPM_P2
2021/11/22 00:00:45;;;;;;;12.60;7.65;;;;;;;;;;5014098;28;20196;-81
2021/11/22 00:03:15;;;;;;;12.32;7.57;;;;;;;;;;5019114;28;20227;-78
2021/11/22 00:05:42;;;;;;;12.05;7.60;;;;;;;;;;5039712;28;20208;-80
2021/11/22 00:08:09;;;;;;;16.42;7.45;;;;;;;;;;5031386;28;20200;-77
2021/11/22 00:10:36;;;;;;;9.25;6.80;;;;;;;;;;5014168;28;20282;-79
2021/11/22 00:13:04;;;;;;;11.57;7.43;;;;;;;;;;5013697;28;20226;-76
2021/11/22 00:15:31;;;;;;;12.10;6.18;;;;;;;;;;5014249;28;20196;-78
2021/11/22 00:17:59;;;;;;;16.15;7.43;;;;;;;;;;5022197;28;20657;-80
2021/11/22 00:20:27;;;;;;;13.07;7.22;;;;;;;;;;5038618;28;20558;-79
2021/11/22 00:22:54;;;;;;;17.33;7.20;;;;;;;;;;5040155;28;20215;-77
2021/11/22 00:25:22;;;;;;;21.58;6.82;;;;;;;;;;5013620;28;20207;-78
2021/11/22 00:27:49;;;;;;;15.95;7.80;;;;;;;;;;5014043;28;20207;-80
2021/11/22 00:30:16;;;;;;;10.93;6.13;;;;;;;;;;5024640;28;20250;-79
2021/11/22 00:32:45;;;;;;;11.57;5.82;;;;;;;;;;5032798;28;20225;-79
2021/11/22 00:35:13;;;;;;;12.40;7.35;;;;;;;;;;5027103;28;20196;-77
2021/11/22 00:37:44;;;;;;;12.25;7.72;;;;;;;;;;5024393;28;20198;-78
2021/11/22 00:40:12;;;;;;;17.00;7.13;;;;;;;;;;5037845;28;20329;-77
2021/11/22 00:42:40;;;;;;;11.93;6.75;;;;;;;;;;5021174;28;20215;-77
2021/11/22 00:45:07;;;;;;;14.02;7.88;;;;;;;;;;5012055;28;20255;-78
2021/11/22 00:47:36;;;;;;;14.82;7.32;;;;;;;;;;5013938;28;20219;-76
2021/11/22 00:50:03;;;;;;;12.10;7.57;;;;;;;;;;5014638;28;20615;-77
2021/11/22 00:52:30;;;;;;;15.00;6.90;;;;;;;;;;5028847;28;20243;-79
2021/11/22 00:54:59;;;;;;;15.05;7.18;;;;;;;;;;5034600;28;20213;-80
2021/11/22 00:57:26;;;;;;;12.07;7.47;;;;;;;;;;5035709;28;20195;-80
2021/11/22 00:59:53;;;;;;;18.35;7.53;;;;;;;;;;5038306;28;20525;-80
2021/11/22 01:02:22;;;;;;;11.43;7.03;;;;;;;;;;5039698;28;20569;-78
2021/11/22 01:04:51;;;;;;;15.40;6.28;;;;;;;;;;5049831;28;20583;-76
2021/11/22 01:07:18;;;;;;;20.17;7.32;;;;;;;;;;5045408;28;20204;-79
2021/11/22 01:09:46;;;;;;;12.30;6.63;;;;;;;;;;5032945;28;20200;-79
2021/11/22 01:12:14;;;;;;;16.40;6.85;;;;;;;;;;5032295;28;20230;-79
2021/11/22 01:14:41;;;;;;;12.25;6.03;;;;;;;;;;5034113;28;20220;-79
2021/11/22 01:17:09;;;;;;;13.75;6.20;;;;;;;;;;5033495;28;20746;-76
2021/11/22 01:19:36;;;;;;;12.77;6.50;;;;;;;;;;5034536;28;20203;-77
2021/11/22 01:22:03;;;;;;;17.40;6.00;;;;;;;;;;5020276;28;20221;-78
2021/11/22 01:24:31;;;;;;;14.98;5.93;;;;;;;;;;5038673;28;20553;-79
2021/11/22 01:26:58;;;;;;;10.90;5.93;;;;;;;;;;5034505;28;20215;-79
2021/11/22 01:29:26;;;;;;;11.90;6.15;;;;;;;;;;5033085;28;20210;-80
2021/11/22 01:31:54;;;;;;;18.58;6.88;;;;;;;;;;5031383;28;20576;-78
2021/11/22 01:34:21;;;;;;;17.60;6.47;;;;;;;;;;5017584;28;20843;-78
2021/11/22 01:36:48;;;;;;;13.88;6.43;;;;;;;;;;5024502;28;21220;-76
2021/11/22 01:39:15;;;;;;;14.10;6.90;;;;;;;;;;5032720;28;20195;-79
2021/11/22 01:41:42;;;;;;;16.40;7.53;;;;;;;;;;5039429;28;20218;-76
2021/11/22 01:44:09;;;;;;;13.23;6.82;;;;;;;;;;5031848;28;20687;-76
2021/11/22 01:46:38;;;;;;;13.35;7.57;;;;;;;;;;5032028;28;20202;-76
2021/11/22 01:49:05;;;;;;;14.80;7.90;;;;;;;;;;5032924;28;20199;-78
2021/11/22 01:51:33;;;;;;;14.15;8.25;;;;;;;;;;5030808;28;20215;-77
2021/11/22 01:54:00;;;;;;;19.25;9.60;;;;;;;;;;5031776;28;20223;-77
2021/11/22 01:56:28;;;;;;;13.63;8.00;;;;;;;;;;5037912;28;20186;-79
2021/11/22 01:58:55;;;;;;;15.70;7.90;;;;;;;;;;5051829;28;20205;-78
2021/11/22 02:01:22;;;;;;;19.40;9.15;;;;;;;;;;5034314;28;20218;-79
2021/11/22 02:03:51;;;;;;;14.13;8.27;;;;;;;;;;5051472;28;20221;-81
2021/11/22 02:06:19;;;;;;;12.30;7.90;;;;;;;;;;5017837;28;20477;-77
2021/11/22 02:08:46;;;;;;;11.02;7.07;;;;;;;;;;5026809;28;20217;-79
2021/11/22 02:11:14;;;;;;;9.60;6.68;;;;;;;;;;5039426;28;20562;-78
2021/11/22 02:13:41;;;;;;;9.93;6.75;;;;;;;;;;5033096;28;20199;-78
2021/11/22 02:16:08;;;;;;;12.95;7.15;;;;;;;;;;5029640;28;20652;-80
2021/11/22 02:18:35;;;;;;;13.55;7.40;;;;;;;;;;5012384;28;20200;-76
2021/11/22 02:21:04;;;;;;;11.45;7.80;;;;;;;;;;5012548;28;20220;-77
2021/11/22 02:23:31;;;;;;;11.15;7.03;;;;;;;;;;5027744;28;20203;-78
2021/11/22 02:25:59;;;;;;;13.45;8.20;;;;;;;;;;5032592;28;20203;-76
2021/11/22 02:28:26;;;;;;;19.17;7.13;;;;;;;;;;5032419;28;20225;-79
2021/11/22 02:30:53;;;;;;;13.93;7.57;;;;;;;;;;5030478;28;20195;-79
2021/11/22 02:33:23;;;;;;;10.07;7.13;;;;;;;;;;5036834;28;20290;-80
2021/11/22 02:35:51;;;;;;;8.13;6.60;;;;;;;;;;5041832;28;20211;-80
2021/11/22 02:38:20;;;;;;;12.02;7.40;;;;;;;;;;4993611;28;20192;-78
2021/11/22 02:40:48;;;;;;;10.38;7.80;;;;;;;;;;5009771;28;20332;-79
2021/11/22 02:43:17;;;;;;;12.77;7.88;;;;;;;;;;5011023;28;20656;-79
2021/11/22 02:45:44;;;;;;;9.38;6.60;;;;;;;;;;5031273;28;20762;-78
2021/11/22 02:48:12;;;;;;;11.27;7.03;;;;;;;;;;5033808;28;20203;-79
2021/11/22 02:50:39;;;;;;;12.85;8.38;;;;;;;;;;5033708;28;20199;-78
2021/11/22 02:53:06;;;;;;;13.50;8.20;;;;;;;;;;5031544;28;20230;-80
2021/11/22 02:55:35;;;;;;;13.65;8.63;;;;;;;;;;5032045;28;20210;-80
2021/11/22 02:58:02;;;;;;;15.02;8.40;;;;;;;;;;5051631;28;20332;-79
2021/11/22 03:00:30;;;;;;;13.30;9.07;;;;;;;;;;5050411;28;20205;-78
2021/11/22 03:02:57;;;;;;;13.82;9.77;;;;;;;;;;5037766;28;20215;-80
2021/11/22 03:05:25;;;;;;;15.38;9.75;;;;;;;;;;5031258;28;20226;-82
2021/11/22 03:07:53;;;;;;;20.00;10.70;;;;;;;;;;5034502;28;20199;-77
2021/11/22 03:10:21;;;;;;;17.40;10.93;;;;;;;;;;5019471;28;20228;-79
2021/11/22 03:12:50;;;;;;;17.00;11.35;;;;;;;;;;5027474;28;20275;-80
2021/11/22 03:15:19;;;;;;;19.42;12.85;;;;;;;;;;5011154;28;20278;-80
2021/11/22 03:17:46;;;;;;;19.45;12.35;;;;;;;;;;4993201;28;20200;-78
2021/11/22 03:20:15;;;;;;;25.15;13.68;;;;;;;;;;5015637;28;20218;-77
2021/11/22 03:22:42;;;;;;;17.05;11.82;;;;;;;;;;5033965;28;20219;-76
2021/11/22 03:25:11;;;;;;;19.92;11.77;;;;;;;;;;5038279;28;20673;-77
2021/11/22 03:27:38;;;;;;;27.17;13.25;;;;;;;;;;5010507;28;20896;-78
2021/11/22 03:30:08;;;;;;;21.60;12.73;;;;;;;;;;4993677;28;20255;-78
2021/11/22 03:32:35;;;;;;;18.33;10.77;;;;;;;;;;5009708;28;20227;-78
2021/11/22 03:35:02;;;;;;;19.73;12.73;;;;;;;;;;5010926;28;20196;-78
2021/11/22 03:37:30;;;;;;;19.98;12.82;;;;;;;;;;5010192;28;20198;-79
2021/11/22 03:39:57;;;;;;;17.38;11.68;;;;;;;;;;5037169;28;20214;-77
2021/11/22 03:42:27;;;;;;;16.88;11.38;;;;;;;;;;5031185;28;20211;-80
2021/11/22 03:44:54;;;;;;;22.95;12.10;;;;;;;;;;5013024;28;20229;-80
2021/11/22 03:47:22;;;;;;;25.50;12.40;;;;;;;;;;5030197;28;20200;-78
2021/11/22 03:49:49;;;;;;;21.33;13.10;;;;;;;;;;5030279;28;20203;-80
2021/11/22 03:52:17;;;;;;;21.83;13.15;;;;;;;;;;5030149;28;20235;-77
2021/11/22 03:54:44;;;;;;;23.52;13.88;;;;;;;;;;5036900;28;20575;-77
2021/11/22 03:57:11;;;;;;;21.23;13.63;;;;;;;;;;5049853;28;20524;-77
2021/11/22 03:59:38;;;;;;;19.85;13.35;;;;;;;;;;5050577;28;20205;-78
2021/11/22 04:02:06;;;;;;;24.70;14.40;;;;;;;;;;5050470;28;20715;-78
2021/11/22 04:04:34;;;;;;;21.13;13.10;;;;;;;;;;5049472;28;20309;-79
2021/11/22 04:07:01;;;;;;;20.40;12.80;;;;;;;;;;5031340;28;20202;-79
2021/11/22 04:09:29;;;;;;;20.08;13.63;;;;;;;;;;5032898;28;20298;-78
2021/11/22 04:11:56;;;;;;;27.85;14.88;;;;;;;;;;5017280;28;20234;-81
2021/11/22 04:14:23;;;;;;;22.25;14.13;;;;;;;;;;5032773;28;20191;-78
2021/11/22 04:16:50;;;;;;;23.73;15.32;;;;;;;;;;5040219;28;20199;-78
2021/11/22 04:19:18;;;;;;;21.00;13.90;;;;;;;;;;5034353;28;20559;-77
2021/11/22 04:21:46;;;;;;;22.15;15.00;;;;;;;;;;5025951;28;20220;-76
2021/11/22 04:24:13;;;;;;;19.50;14.48;;;;;;;;;;5013620;28;20244;-76
2021/11/22 04:26:41;;;;;;;23.38;15.07;;;;;;;;;;5023047;28;20222;-79
2021/11/22 04:29:08;;;;;;;22.13;14.82;;;;;;;;;;5035419;28;20206;-76
2021/11/22 04:31:35;;;;;;;23.17;14.43;;;;;;;;;;5035864;28;20219;-78
2021/11/22 04:34:03;;;;;;;22.67;15.93;;;;;;;;;;5029392;28;20231;-78
2021/11/22 04:36:30;;;;;;;25.08;15.32;;;;;;;;;;5032456;28;20260;-77
2021/11/22 04:38:59;;;;;;;18.30;14.18;;;;;;;;;;5022519;28;20198;-80
2021/11/22 04:41:26;;;;;;;26.10;17.05;;;;;;;;;;5029498;28;20227;-78
2021/11/22 04:43:54;;;;;;;18.92;13.75;;;;;;;;;;5032219;28;20195;-78
2021/11/22 04:46:21;;;;;;;21.45;14.45;;;;;;;;;;5033555;28;20230;-77
2021/11/22 04:48:48;;;;;;;21.08;14.35;;;;;;;;;;5024995;28;20196;-80
2021/11/22 04:51:15;;;;;;;19.65;13.02;;;;;;;;;;5034470;28;20219;-79
2021/11/22 04:53:43;;;;;;;17.45;12.98;;;;;;;;;;5035088;28;20253;-81
2021/11/22 04:56:11;;;;;;;20.20;13.73;;;;;;;;;;5035034;28;20191;-81
2021/11/22 04:58:38;;;;;;;18.50;12.02;;;;;;;;;;5037112;28;20190;-77
2021/11/22 05:01:06;;;;;;;16.30;11.93;;;;;;;;;;5040616;28;20723;-78
2021/11/22 05:03:33;;;;;;;15.63;11.63;;;;;;;;;;5049820;28;20238;-78
2021/11/22 05:06:00;;;;;;;18.13;11.90;;;;;;;;;;4995462;28;20232;-81
2021/11/22 05:08:28;;;;;;;14.13;11.52;;;;;;;;;;5024937;28;20226;-78
2021/11/22 05:10:55;;;;;;;18.00;11.90;;;;;;;;;;5033060;28;20196;-78
2021/11/22 05:13:25;;;;;;;15.68;12.68;;;;;;;;;;5034397;28;20554;-77
2021/11/22 05:15:53;;;;;;;18.00;11.85;;;;;;;;;;5040723;28;20196;-80
2021/11/22 05:18:20;;;;;;;15.48;11.23;;;;;;;;;;5047621;28;20565;-78
2021/11/22 05:20:47;;;;;;;19.25;11.82;;;;;;;;;;5052847;28;20202;-78
2021/11/22 05:23:14;;;;;;;14.35;10.90;;;;;;;;;;5029352;28;20192;-81
2021/11/22 05:25:42;;;;;;;15.90;11.85;;;;;;;;;;4994991;28;20323;-82
2021/11/22 05:28:09;;;;;;;15.80;9.90;;;;;;;;;;5025140;28;20214;-77
2021/11/22 05:30:38;;;;;;;13.23;10.13;;;;;;;;;;5022321;28;20636;-78
2021/11/22 05:33:06;;;;;;;14.30;11.20;;;;;;;;;;5030721;28;20212;-79
2021/11/22 05:35:34;;;;;;;15.25;10.95;;;;;;;;;;5012119;28;20200;-79
2021/11/22 05:38:01;;;;;;;15.75;10.75;;;;;;;;;;5012045;28;20226;-78
2021/11/22 05:40:28;;;;;;;13.90;9.10;;;;;;;;;;5011654;28;20222;-81
2021/11/22 05:42:57;;;;;;;13.82;8.85;;;;;;;;;;5015808;28;20587;-79
2021/11/22 05:45:25;;;;;;;16.23;9.55;;;;;;;;;;5039089;28;20572;-77
2021/11/22 05:47:53;;;;;;;13.73;10.80;;;;;;;;;;5039646;28;20597;-78
2021/11/22 05:50:22;;;;;;;15.73;10.68;;;;;;;;;;5015633;28;20234;-78
2021/11/22 05:52:51;;;;;;;10.75;9.10;;;;;;;;;;4994609;28;20228;-79
2021/11/22 05:55:26;;;;;;;14.68;9.05;;;;;;;;;;5011065;28;20199;-77
2021/11/22 05:57:54;;;;;;;14.30;8.75;;;;;;;;;;5013597;28;20196;-77
2021/11/22 06:00:21;;;;;;;12.15;9.63;;;;;;;;;;5039621;28;20203;-82
2021/11/22 06:02:49;;;;;;;10.35;9.05;;;;;;;;;;5034673;28;20217;-78
2021/11/22 06:05:17;;;;;;;11.93;10.05;;;;;;;;;;5030504;28;20572;-79
2021/11/22 06:07:45;;;;;;;10.00;7.90;;;;;;;;;;5031792;28;20195;-83
2021/11/22 06:10:12;;;;;;;10.63;8.82;;;;;;;;;;5031300;28;20226;-78
2021/11/22 06:12:39;;;;;;;11.60;8.98;;;;;;;;;;5027334;28;20215;-79
2021/11/22 06:15:07;;;;;;;14.55;8.32;;;;;;;;;;5039541;28;20199;-82
2021/11/22 06:17:34;;;;;;;9.32;7.63;;;;;;;;;;5012570;28;20219;-79
2021/11/22 06:20:01;;;;;;;9.57;8.05;;;;;;;;;;5012069;28;20300;-78
2021/11/22 06:22:30;;;;;;;11.43;8.32;;;;;;;;;;5011033;28;20224;-81
2021/11/22 06:24:57;;;;;;;11.95;8.35;;;;;;;;;;5025945;28;20199;-80
2021/11/22 06:27:24;;;;;;;11.52;8.90;;;;;;;;;;5031545;28;20711;-78
2021/11/22 06:29:52;;;;;;;17.92;9.18;;;;;;;;;;5025678;28;20258;-78
2021/11/22 06:32:20;;;;;;;11.30;9.27;;;;;;;;;;5013742;28;20251;-79
2021/11/22 06:34:47;;;;;;;12.45;9.40;;;;;;;;;;5014567;28;20196;-78
2021/11/22 06:37:14;;;;;;;9.45;7.57;;;;;;;;;;5038772;28;20261;-78
2021/11/22 06:39:43;;;;;;;9.95;7.43;;;;;;;;;;5033562;28;20681;-81
2021/11/22 06:42:10;;;;;;;11.95;8.32;;;;;;;;;;5032497;28;20223;-81
2021/11/22 06:44:37;;;;;;;13.75;9.50;;;;;;;;;;5032011;28;20203;-81
2021/11/22 06:47:05;;;;;;;12.15;8.20;;;;;;;;;;5030946;28;20225;-79
2021/11/22 06:49:33;;;;;;;12.80;9.25;;;;;;;;;;5033511;28;20561;-80
2021/11/22 06:52:00;;;;;;;11.07;9.02;;;;;;;;;;5016436;28;20231;-80
2021/11/22 06:54:27;;;;;;;11.52;8.88;;;;;;;;;;5014075;28;20561;-81
2021/11/22 06:56:56;;;;;;;12.23;8.95;;;;;;;;;;5015607;28;20202;-76
2021/11/22 06:59:23;;;;;;;12.23;8.55;;;;;;;;;;5037941;28;20203;-79
2021/11/22 07:01:50;;;;;;;16.00;9.68;;;;;;;;;;5036437;28;20227;-76
2021/11/22 07:04:50;;;;;;;13.23;9.70;;;;;;;;;;5021463;28;20227;-77
2021/11/22 07:07:18;;;;;;;14.63;10.30;;;;;;;;;;5012727;28;20231;-77
2021/11/22 07:09:46;;;;;;;15.80;10.30;;;;;;;;;;5011864;28;20202;-77
2021/11/22 07:12:15;;;;;;;13.98;8.73;;;;;;;;;;5024035;28;20258;-78
2021/11/22 07:14:43;;;;;;;11.73;8.98;;;;;;;;;;5033996;28;20294;-77
2021/11/22 07:17:11;;;;;;;14.50;9.48;;;;;;;;;;5036109;28;20284;-75
2021/11/22 07:19:38;;;;;;;12.45;8.98;;;;;;;;;;5037158;28;20262;-76
2021/11/22 07:22:08;;;;;;;12.13;9.70;;;;;;;;;;5041042;28;20230;-77
2021/11/22 07:24:49;;;;;;;15.27;10.35;;;;;;;;;;5033575;28;20203;-81
2021/11/22 07:27:24;;;;;;;10.88;9.77;;;;;;;;;;5031481;28;20226;-79
2021/11/22 07:29:51;;;;;;;16.50;11.75;;;;;;;;;;5030880;28;20198;-76
2021/11/22 07:32:18;;;;;;;14.02;10.10;;;;;;;;;;5029696;28;20226;-76
2021/11/22 07:34:45;;;;;;;15.73;11.40;;;;;;;;;;5032845;28;20202;-76
2021/11/22 07:37:18;;;;;;;13.60;9.90;;;;;;;;;;5036643;28;20288;-76
2021/11/22 07:39:45;;;;;;;11.88;9.80;;;;;;;;;;5044852;28;20209;-75
2021/11/22 07:42:17;;;;;;;14.82;10.85;;;;;;;;;;5051618;28;20215;-77
2021/11/22 07:44:47;;;;;;;11.43;9.57;;;;;;;;;;5050363;28;20222;-77
2021/11/22 07:47:15;;;;;;;11.90;9.40;;;;;;;;;;5053045;28;20214;-77
2021/11/22 07:49:42;;;;;;;15.40;10.23;;;;;;;;;;5043605;28;20214;-78
2021/11/22 07:52:10;;;;;;;13.13;10.43;;;;;;;;;;5039491;28;20288;-76
2021/11/22 07:54:37;;;;;;;11.73;9.48;;;;;;;;;;5042088;28;20237;-77
2021/11/22 07:57:04;;;;;;;12.48;8.82;;;;;;;;;;5031517;28;20208;-79
2021/11/22 07:59:32;;;;;;;10.45;8.80;;;;;;;;;;5013073;28;20219;-78
2021/11/22 08:02:01;;;;;;;10.73;9.10;;;;;;;;;;5015622;28;20220;-76
2021/11/22 08:04:28;;;;;;;9.90;8.30;;;;;;;;;;5014118;28;20200;-77
2021/11/22 08:06:59;;;;;;;15.07;8.75;;;;;;;;;;5036882;28;20227;-77
2021/11/22 08:09:29;;;;;;;12.25;8.90;;;;;;;;;;5040681;28;20220;-76
2021/11/22 08:14:39;;;;;;;12.38;9.52;;;;;;;;;;5002159;28;20195;-75
2021/11/22 08:17:08;;;;;;;10.45;8.10;;;;;;;;;;5012636;28;20219;-75
2021/11/22 08:19:35;;;;;;;11.88;8.60;;;;;;;;;;5017074;28;20637;-77
2021/11/22 08:22:02;;;;;;;9.65;7.80;;;;;;;;;;5037310;28;20585;-75
2021/11/22 08:24:30;;;;;;;12.30;8.65;;;;;;;;;;5040964;28;20739;-75
2021/11/22 08:26:57;;;;;;;12.18;7.47;;;;;;;;;;5032013;28;20234;-75
2021/11/22 08:29:24;;;;;;;9.52;7.30;;;;;;;;;;5033154;28;20208;-77
2021/11/22 08:31:51;;;;;;;8.10;6.75;;;;;;;;;;5032064;28;20223;-78
2021/11/22 08:34:20;;;;;;;8.25;7.32;;;;;;;;;;5016281;28;20206;-79
2021/11/22 08:36:47;;;;;;;9.65;6.78;;;;;;;;;;5038103;28;20199;-78
2021/11/22 08:39:15;;;;;;;9.23;7.70;;;;;;;;;;5039694;28;20213;-76
2021/11/22 08:41:42;;;;;;;7.45;6.40;;;;;;;;;;5035932;28;20685;-79
2021/11/22 08:44:09;;;;;;;7.93;6.40;;;;;;;;;;5026868;28;20211;-84
2021/11/22 08:46:38;;;;;;;7.03;6.30;;;;;;;;;;5013770;28;20234;-81
2021/11/22 08:49:07;;;;;;;10.10;7.07;;;;;;;;;;5013397;28;20224;-76
2021/11/22 08:51:36;;;;;;;7.40;6.53;;;;;;;;;;5035578;28;20220;-79
2021/11/22 08:54:03;;;;;;;8.00;6.57;;;;;;;;;;5023337;28;20196;-76
2021/11/22 08:56:30;;;;;;;8.18;6.43;;;;;;;;;;5047206;28;20202;-76
2021/11/22 08:58:58;;;;;;;7.57;6.72;;;;;;;;;;5025885;28;20867;-76
2021/11/22 09:01:25;;;;;;;12.10;6.53;;;;;;;;;;5052750;28;20225;-77
2021/11/22 09:03:52;;;;;;;8.07;6.47;;;;;;;;;;5039906;28;20203;-77
2021/11/22 09:06:20;;;;;;;7.68;5.85;;;;;;;;;;5028766;28;20579;-78
2021/11/22 09:08:49;;;;;;;6.95;6.10;;;;;;;;;;5020737;28;20203;-78
2021/11/22 09:11:17;;;;;;;9.02;6.63;;;;;;;;;;5038913;28;20219;-78
2021/11/22 09:13:45;;;;;;;9.50;6.75;;;;;;;;;;5030869;28;20206;-76
2021/11/22 09:16:12;;;;;;;7.55;5.80;;;;;;;;;;5033184;28;20633;-77
2021/11/22 09:18:40;;;;;;;8.43;6.82;;;;;;;;;;5025942;28;20673;-76
2021/11/22 09:21:07;;;;;;;10.27;7.25;;;;;;;;;;5013408;28;20216;-78
2021/11/22 09:23:35;;;;;;;7.95;6.53;;;;;;;;;;5025120;28;20563;-79
2021/11/22 09:26:04;;;;;;;9.02;6.68;;;;;;;;;;5040309;28;20238;-76
2021/11/22 09:28:33;;;;;;;6.88;6.07;;;;;;;;;;5048624;28;20206;-78
2021/11/22 09:31:01;;;;;;;8.43;6.88;;;;;;;;;;5052515;28;20301;-77
2021/11/22 09:33:28;;;;;;;6.97;6.38;;;;;;;;;;5020360;28;20200;-76
2021/11/22 09:35:55;;;;;;;6.60;5.90;;;;;;;;;;5013440;28;20614;-76
2021/11/22 09:38:23;;;;;;;7.55;6.35;;;;;;;;;;5014015;28;20207;-77
2021/11/22 09:40:50;;;;;;;6.53;5.82;;;;;;;;;;5014215;28;20211;-75
2021/11/22 09:43:18;;;;;;;7.95;5.97;;;;;;;;;;5014198;28;20211;-77
2021/11/22 09:45:46;;;;;;;8.05;6.40;;;;;;;;;;5024989;28;20191;-76
2021/11/22 09:48:14;;;;;;;7.22;6.40;;;;;;;;;;5037416;28;20223;-75
2021/11/22 09:50:42;;;;;;;6.82;6.18;;;;;;;;;;5005593;28;20564;-76
2021/11/22 09:53:09;;;;;;;6.43;5.50;;;;;;;;;;5012204;28;20599;-76
2021/11/22 09:55:36;;;;;;;6.82;5.47;;;;;;;;;;5012664;28;20196;-78
2021/11/22 09:58:05;;;;;;;7.03;5.50;;;;;;;;;;5010526;28;20200;-78
2021/11/22 10:00:38;;;;;;;6.55;5.70;;;;;;;;;;5027490;28;20210;-75
2021/11/22 10:03:09;;;;;;;7.97;5.93;;;;;;;;;;5013400;28;20223;-76
2021/11/22 10:05:38;;;;;;;6.38;5.53;;;;;;;;;;5013829;28;20200;-76
2021/11/22 10:08:07;;;;;;;5.40;4.53;;;;;;;;;;5026664;28;20211;-75
2021/11/22 10:10:36;;;;;;;5.95;5.25;;;;;;;;;;5021335;28;20203;-75
2021/11/22 10:13:18;;;;;;;4.80;4.35;;;;;;;;;;5019398;28;20212;-78
2021/11/22 10:15:47;;;;;;;7.82;5.72;;;;;;;;;;5030772;28;20218;-79
2021/11/22 10:18:16;;;;;;;6.03;5.27;;;;;;;;;;5031880;28;20191;-76
2021/11/22 10:20:44;;;;;;;6.28;5.50;;;;;;;;;;5031942;28;20458;-80
2021/11/22 10:23:12;;;;;;;6.28;4.82;;;;;;;;;;5012346;28;20226;-78
2021/11/22 10:25:41;;;;;;;5.68;5.05;;;;;;;;;;5014698;28;20603;-77
2021/11/22 10:28:10;;;;;;;3.88;3.47;;;;;;;;;;5014387;28;20338;-76
2021/11/22 10:30:39;;;;;;;4.88;4.35;;;;;;;;;;5037491;28;20195;-77
2021/11/22 10:33:09;;;;;;;4.45;3.97;;;;;;;;;;5043440;28;20206;-79
2021/11/22 10:35:37;;;;;;;5.00;4.28;;;;;;;;;;5051277;28;20586;-76
2021/11/22 10:38:06;;;;;;;5.57;3.63;;;;;;;;;;5032120;28;20201;-76
2021/11/22 10:40:34;;;;;;;5.63;4.18;;;;;;;;;;4998837;28;20299;-78
2021/11/22 10:43:03;;;;;;;4.77;3.57;;;;;;;;;;5021740;28;20215;-77
2021/11/22 10:45:33;;;;;;;5.10;4.05;;;;;;;;;;5039298;28;20455;-76
2021/11/22 10:48:11;;;;;;;4.53;4.13;;;;;;;;;;5028418;28;20681;-83
2021/11/22 10:50:47;;;;;;;4.57;4.18;;;;;;;;;;5012532;28;20192;-80
2021/11/22 10:53:15;;;;;;;4.20;3.80;;;;;;;;;;5014412;28;20235;-76
2021/11/22 10:55:45;;;;;;;4.43;4.05;;;;;;;;;;5019473;28;20660;-77
2021/11/22 10:58:28;;;;;;;6.13;4.80;;;;;;;;;;5033889;28;20231;-78
2021/11/22 11:00:55;;;;;;;4.50;4.10;;;;;;;;;;5021913;28;20193;-76
2021/11/22 11:03:23;;;;;;;5.20;4.70;;;;;;;;;;5039668;28;20218;-76
2021/11/22 11:05:58;;;;;;;4.65;4.00;;;;;;;;;;5021123;28;20195;-77
2021/11/22 11:08:29;;;;;;;4.88;4.20;;;;;;;;;;5026302;28;20226;-81
2021/11/22 11:11:09;;;;;;;4.90;4.40;;;;;;;;;;5011770;28;20294;-75
2021/11/22 11:13:44;;;;;;;4.03;3.53;;;;;;;;;;5034162;28;20203;-76
2021/11/22 11:16:13;;;;;;;4.63;4.10;;;;;;;;;;5023256;28;20196;-76
2021/11/22 11:18:41;;;;;;;5.20;4.60;;;;;;;;;;5045544;28;20199;-82
2021/11/22 11:21:09;;;;;;;5.07;4.53;;;;;;;;;;5031541;28;20214;-82
2021/11/22 11:23:36;;;;;;;4.43;4.03;;;;;;;;;;5034226;28;20653;-80
2021/11/22 11:26:04;;;;;;;4.80;4.30;;;;;;;;;;5035045;28;20682;-78
2021/11/22 11:28:31;;;;;;;4.88;4.47;;;;;;;;;;5041079;28;20230;-80
2021/11/22 11:30:58;;;;;;;5.65;5.13;;;;;;;;;;5035516;28;20230;-77
2021/11/22 11:33:26;;;;;;;5.05;4.55;;;;;;;;;;5033076;28;20203;-77
2021/11/22 11:35:56;;;;;;;5.00;4.53;;;;;;;;;;5017093;28;20202;-79
2021/11/22 11:38:25;;;;;;;6.65;4.65;;;;;;;;;;5035016;28;20226;-76
2021/11/22 11:40:58;;;;;;;5.50;4.78;;;;;;;;;;5016987;28;20195;-75
2021/11/22 11:43:38;;;;;;;5.05;4.53;;;;;;;;;;5039872;28;20195;-77
2021/11/22 11:46:11;;;;;;;4.53;4.13;;;;;;;;;;5034486;28;20805;-76
2021/11/22 11:48:42;;;;;;;5.30;4.80;;;;;;;;;;5024918;28;20224;-78
2021/11/22 11:51:12;;;;;;;8.82;5.40;;;;;;;;;;5027421;28;20204;-77
2021/11/22 11:53:39;;;;;;;5.10;4.60;;;;;;;;;;5017527;28;20223;-77
2021/11/22 11:56:08;;;;;;;5.80;4.93;;;;;;;;;;5036062;28;20582;-77
2021/11/22 11:58:35;;;;;;;4.60;4.20;;;;;;;;;;5035376;28;20434;-78
2021/11/22 12:01:06;;;;;;;6.40;4.70;;;;;;;;;;5035060;28;20466;-78
2021/11/22 12:03:53;;;;;;;6.20;5.60;;;;;;;;;;5015963;28;20207;-80
2021/11/22 12:06:35;;;;;;;6.30;5.70;;;;;;;;;;5026674;28;20456;-77
2021/11/22 12:09:17;;;;;;;5.20;4.70;;;;;;;;;;5018179;28;20438;-77
2021/11/22 12:11:46;;;;;;;8.35;4.95;;;;;;;;;;5013899;28;20479;-77
2021/11/22 12:14:13;;;;;;;5.63;5.13;;;;;;;;;;5014857;28;20210;-77
2021/11/22 12:16:41;;;;;;;6.70;5.00;;;;;;;;;;5033255;28;20199;-78
2021/11/22 12:19:23;;;;;;;5.67;4.73;;;;;;;;;;5036412;28;20438;-77
2021/11/22 12:21:50;;;;;;;5.73;4.10;;;;;;;;;;5033560;28;20465;-78
2021/11/22 12:24:18;;;;;;;5.07;4.10;;;;;;;;;;5028130;28;20454;-77
2021/11/22 12:26:46;;;;;;;4.57;3.80;;;;;;;;;;5038120;28;20198;-77
2021/11/22 12:29:13;;;;;;;4.47;3.85;;;;;;;;;;5044378;28;20245;-77
2021/11/22 12:31:44;;;;;;;5.05;3.92;;;;;;;;;;5050458;28;20219;-78
2021/11/22 12:34:13;;;;;;;3.17;2.97;;;;;;;;;;5015588;28;20199;-76
2021/11/22 12:36:45;;;;;;;3.15;2.90;;;;;;;;;;5032958;28;20192;-76
2021/11/22 12:39:14;;;;;;;3.10;2.80;;;;;;;;;;5034255;28;20314;-77
2021/11/22 12:41:42;;;;;;;4.80;3.58;;;;;;;;;;5034891;28;20227;-79
2021/11/22 12:44:12;;;;;;;4.05;3.65;;;;;;;;;;5023354;28;20206;-78
2021/11/22 12:46:41;;;;;;;3.63;3.33;;;;;;;;;;5047724;28;20203;-78
2021/11/22 12:49:23;;;;;;;3.60;3.30;;;;;;;;;;5034715;28;20233;-76
2021/11/22 12:51:51;;;;;;;4.30;3.15;;;;;;;;;;5017652;28;20219;-78
2021/11/22 12:54:21;;;;;;;3.08;2.80;;;;;;;;;;5033282;28;20199;-76
2021/11/22 12:56:48;;;;;;;3.85;3.15;;;;;;;;;;5035509;28;20206;-77
2021/11/22 12:59:19;;;;;;;2.47;2.22;;;;;;;;;;5039456;28;20196;-77
2021/11/22 13:01:47;;;;;;;2.65;2.45;;;;;;;;;;5043548;28;20578;-79
2021/11/22 13:04:40;;;;;;;3.83;2.60;;;;;;;;;;5031893;28;20196;-77
2021/11/22 13:07:08;;;;;;;4.18;2.50;;;;;;;;;;5031442;28;20601;-78
2021/11/22 13:09:41;;;;;;;2.35;2.15;;;;;;;;;;5032662;28;20200;-77
2021/11/22 13:12:09;;;;;;;3.75;2.05;;;;;;;;;;5039414;28;20206;-76
2021/11/22 13:14:48;;;;;;;2.03;1.67;;;;;;;;;;5039492;28;20202;-77
2021/11/22 13:17:15;;;;;;;2.20;1.80;;;;;;;;;;5035368;28;20274;-77
2021/11/22 13:19:43;;;;;;;2.10;1.80;;;;;;;;;;5035382;28;20196;-75
2021/11/22 13:22:15;;;;;;;1.95;1.85;;;;;;;;;;5030493;28;20803;-77
2021/11/22 13:24:45;;;;;;;1.92;1.73;;;;;;;;;;5014738;28;20219;-77
2021/11/22 13:27:12;;;;;;;2.65;1.70;;;;;;;;;;5031966;28;20294;-78
2021/11/22 13:29:41;;;;;;;1.80;1.67;;;;;;;;;;5040466;28;20199;-75
2021/11/22 13:32:08;;;;;;;1.70;1.60;;;;;;;;;;5034721;28;20212;-78
2021/11/22 13:34:36;;;;;;;1.85;1.67;;;;;;;;;;5031833;28;20246;-77
2021/11/22 13:37:06;;;;;;;1.90;1.25;;;;;;;;;;5026271;28;20656;-76
2021/11/22 13:39:35;;;;;;;2.00;1.80;;;;;;;;;;5032977;28;20652;-76
2021/11/22 13:42:05;;;;;;;8.02;2.10;;;;;;;;;;5031994;28;20309;-77
2021/11/22 13:44:33;;;;;;;2.00;1.80;;;;;;;;;;5037395;28;20301;-77
2021/11/22 13:47:02;;;;;;;3.05;1.90;;;;;;;;;;5022120;28;20195;-78
2021/11/22 13:49:30;;;;;;;5.20;2.10;;;;;;;;;;5027867;28;20218;-76
2021/11/22 13:51:57;;;;;;;2.47;1.77;;;;;;;;;;5014448;28;20269;-74
2021/11/22 13:54:26;;;;;;;2.40;1.83;;;;;;;;;;5032386;28;20294;-78
2021/11/22 13:56:57;;;;;;;3.33;1.63;;;;;;;;;;5031200;28;20206;-79
2021/11/22 13:59:25;;;;;;;2.92;1.65;;;;;;;;;;5036486;28;20202;-77
2021/11/22 14:01:53;;;;;;;1.60;1.50;;;;;;;;;;5035306;28;20590;-75
2021/11/22 14:04:22;;;;;;;3.40;2.27;;;;;;;;;;5022591;28;20466;-77
2021/11/22 14:06:50;;;;;;;6.60;1.98;;;;;;;;;;5012408;28;20450;-77
2021/11/22 14:09:18;;;;;;;3.13;2.07;;;;;;;;;;5012021;28;20227;-77
2021/11/22 14:11:49;;;;;;;2.30;1.95;;;;;;;;;;5021578;28;20493;-76
2021/11/22 14:14:17;;;;;;;3.80;2.30;;;;;;;;;;5033106;28;20195;-75
2021/11/22 14:16:48;;;;;;;2.00;1.90;;;;;;;;;;5033526;28;20201;-75
2021/11/22 14:19:16;;;;;;;2.70;2.38;;;;;;;;;;5033944;28;20198;-77
2021/11/22 14:21:44;;;;;;;3.45;2.80;;;;;;;;;;5038162;28;20224;-76
2021/11/22 14:24:13;;;;;;;2.90;2.60;;;;;;;;;;5044408;28;20209;-76
2021/11/22 14:26:41;;;;;;;8.55;2.70;;;;;;;;;;5051907;28;20241;-76
2021/11/22 14:29:10;;;;;;;3.65;2.05;;;;;;;;;;5051507;28;20225;-78
2021/11/22 14:31:41;;;;;;;2.10;1.90;;;;;;;;;;5031646;28;20575;-79
2021/11/22 14:34:09;;;;;;;4.53;2.13;;;;;;;;;;5014695;28;20648;-76
2021/11/22 14:36:38;;;;;;;2.28;1.95;;;;;;;;;;5021022;28;20720;-80
2021/11/22 14:39:07;;;;;;;2.97;2.30;;;;;;;;;;5040581;28;20199;-78
2021/11/22 14:41:37;;;;;;;5.35;2.55;;;;;;;;;;5045554;28;20673;-76
2021/11/22 14:44:06;;;;;;;3.85;2.55;;;;;;;;;;5031591;28;20195;-77